Time;durP1;ratioP1;P1;durP2;ratioP2;P2;SDS_P1;SDS_P2;PMS_P1;PMS_P2;Temp;Humidity;BMP_temperature;BMP_pressure;BME280_temperature;BME280_humidity;BME280_pressure;Samples;Min_cycle;Max_cycle;Signal;HPM_P1;HPM_P2
2022/09/01 00:01:47;;;;;;;;;;;17.50;99.90;;;;;;5095353;28;19909;-70
2022/09/01 00:04:15;;;;;;;;;;;17.60;99.90;;;;;;5095311;28;19908;-70
2022/09/01 00:06:42;;;;;;;;;;;17.50;99.90;;;;;;5094785;28;19908;-70
2022/09/01 00:09:10;;;;;;;;;;;17.50;99.90;;;;;;5095140;28;19908;-72
2022/09/01 00:11:37;;;;;;;;;;;17.50;99.90;;;;;;5095252;28;19916;-71
2022/09/01 00:14:05;;;;;;;;;;;17.50;99.90;;;;;;5095101;28;19916;-70
2022/09/01 00:16:33;;;;;;;;;;;17.60;99.90;;;;;;5094677;28;20391;-71
2022/09/01 00:18:59;;;;;;;;;;;17.60;99.90;;;;;;5094665;28;20003;-67
2022/09/01 00:21:30;;;;;;;;;;;17.70;99.90;;;;;;5094823;28;19935;-71
2022/09/01 00:23:56;;;;;;;;;;;17.90;99.90;;;;;;5095019;28;19921;-70
2022/09/01 00:26:23;;;;;;;;;;;18.00;99.90;;;;;;5094824;28;19908;-70
2022/09/01 00:28:50;;;;;;;;;;;18.00;99.90;;;;;;5094598;28;19908;-69
2022/09/01 00:31:18;;;;;;;;;;;17.90;99.90;;;;;;5094503;28;19935;-70
2022/09/01 00:33:45;;;;;;;;;;;17.90;99.90;;;;;;5094586;28;20483;-69
2022/09/01 00:36:12;;;;;;;;;;;17.80;99.90;;;;;;5094774;28;19999;-70
2022/09/01 00:38:38;;;;;;;;;;;17.80;99.90;;;;;;5094481;28;20008;-70
2022/09/01 00:41:06;;;;;;;;;;;17.80;99.90;;;;;;5094356;28;19916;-71
2022/09/01 00:43:40;;;;;;;;;;;17.90;99.90;;;;;;5094168;28;19954;-69
2022/09/01 00:46:09;;;;;;;;;;;17.90;99.90;;;;;;5094020;28;20314;-69
2022/09/01 00:48:36;;;;;;;;;;;18.10;99.90;;;;;;5076316;28;19908;-71
2022/09/01 00:51:03;;;;;;;;;;;18.00;99.90;;;;;;5094139;28;19915;-69
2022/09/01 00:53:29;;;;;;;;;;;18.10;99.90;;;;;;5093961;28;19915;-70
2022/09/01 00:55:56;;;;;;;;;;;18.30;99.90;;;;;;5094162;28;20008;-70
2022/09/01 00:58:23;;;;;;;;;;;18.40;99.90;;;;;;5094152;28;19908;-70
2022/09/01 01:00:50;;;;;;;;;;;18.60;99.90;;;;;;5093238;28;20303;-71
2022/09/01 01:03:17;;;;;;;;;;;18.80;99.90;;;;;;5093260;28;19916;-70
2022/09/01 01:05:47;;;;;;;;;;;19.00;99.90;;;;;;5093358;28;20284;-70
2022/09/01 01:08:17;;;;;;;;;;;19.20;99.90;;;;;;5093147;28;19905;-70
2022/09/01 01:10:43;;;;;;;;;;;19.30;99.90;;;;;;5092765;28;19951;-71
2022/09/01 01:13:14;;;;;;;;;;;19.50;99.90;;;;;;5092786;28;19913;-69
2022/09/01 01:15:44;;;;;;;;;;;19.60;99.90;;;;;;5092729;28;19908;-70
2022/09/01 01:18:11;;;;;;;;;;;19.80;99.90;;;;;;5092591;28;20045;-70
2022/09/01 01:23:47;;;;;;;;;;;19.70;99.90;;;;;;5092026;28;20318;-70
2022/09/01 01:26:14;;;;;;;;;;;19.60;99.90;;;;;;5073347;28;20307;-70
2022/09/01 01:28:43;;;;;;;;;;;19.50;99.90;;;;;;5091652;28;19912;-69
2022/09/01 01:31:11;;;;;;;;;;;19.40;99.90;;;;;;5091238;28;19908;-69
2022/09/01 01:33:44;;;;;;;;;;;19.20;99.90;;;;;;5091856;28;19908;-70
2022/09/01 01:36:13;;;;;;;;;;;19.20;99.90;;;;;;5092190;28;19915;-68
2022/09/01 01:38:42;;;;;;;;;;;19.30;99.90;;;;;;5093458;28;20014;-70
2022/09/01 01:41:09;;;;;;;;;;;19.30;99.90;;;;;;5074204;28;20291;-69
2022/09/01 01:43:36;;;;;;;;;;;19.40;99.90;;;;;;5092980;28;19908;-69
2022/09/01 01:46:04;;;;;;;;;;;19.20;99.90;;;;;;5093070;28;19961;-69
2022/09/01 01:48:33;;;;;;;;;;;19.10;99.90;;;;;;5093268;28;19915;-69
2022/09/01 01:51:00;;;;;;;;;;;19.10;99.90;;;;;;5075033;28;20375;-71
2022/09/01 01:53:28;;;;;;;;;;;19.20;99.90;;;;;;5093140;28;19912;-69
2022/09/01 01:55:54;;;;;;;;;;;19.20;99.90;;;;;;5093213;28;19915;-69
2022/09/01 01:58:24;;;;;;;;;;;19.20;99.90;;;;;;5093377;28;19909;-70
2022/09/01 02:00:52;;;;;;;;;;;19.10;99.90;;;;;;5093072;28;20488;-69
2022/09/01 02:03:24;;;;;;;;;;;19.10;99.90;;;;;;5074668;28;20310;-69
2022/09/01 02:05:52;;;;;;;;;;;19.20;99.90;;;;;;5093202;28;19915;-68
2022/09/01 02:08:20;;;;;;;;;;;19.30;99.90;;;;;;5093283;28;19962;-68
2022/09/01 02:10:49;;;;;;;;;;;19.60;99.90;;;;;;5093069;28;19908;-69
2022/09/01 02:13:17;;;;;;;;;;;19.80;99.90;;;;;;5092512;28;19912;-70
2022/09/01 02:15:45;;;;;;;;;;;20.00;99.90;;;;;;5092721;28;19908;-70
2022/09/01 02:18:23;;;;;;;;;;;20.20;99.90;;;;;;5093017;28;20376;-71
2022/09/01 02:20:51;;;;;;;;;;;20.40;99.90;;;;;;5092954;28;19951;-69
2022/09/01 02:23:23;;;;;;;;;;;20.70;99.90;;;;;;5092884;28;19908;-69
2022/09/01 02:25:52;;;;;;;;;;;20.80;99.90;;;;;;5092527;28;19908;-69
2022/09/01 02:28:20;;;;;;;;;;;21.00;99.90;;;;;;5092733;28;19952;-69
2022/09/01 02:30:50;;;;;;;;;;;21.20;99.90;;;;;;5092786;28;19930;-69
2022/09/01 02:33:18;;;;;;;;;;;21.10;99.90;;;;;;5092715;28;20636;-69
2022/09/01 02:35:49;;;;;;;;;;;21.30;99.90;;;;;;5092554;28;19904;-69
2022/09/01 02:38:16;;;;;;;;;;;21.60;99.90;;;;;;5092663;28;19920;-69
2022/09/01 02:40:44;;;;;;;;;;;21.90;99.90;;;;;;5092265;28;19920;-69
2022/09/01 02:43:12;;;;;;;;;;;22.20;99.90;;;;;;5092335;28;19954;-69
2022/09/01 02:45:43;;;;;;;;;;;22.40;99.90;;;;;;5092517;28;19915;-69
2022/09/01 02:48:10;;;;;;;;;;;22.40;99.90;;;;;;5092431;28;20276;-68
2022/09/01 02:50:37;;;;;;;;;;;23.00;99.90;;;;;;5092647;28;19912;-69
2022/09/01 02:53:08;;;;;;;;;;;23.10;99.50;;;;;;5076269;28;20403;-68
2022/09/01 02:55:36;;;;;;;;;;;23.00;98.70;;;;;;5078066;28;19915;-70
2022/09/01 02:58:03;;;;;;;;;;;22.50;99.10;;;;;;5096536;28;20002;-70
2022/09/01 03:00:36;;;;;;;;;;;22.50;99.40;;;;;;5078242;28;19923;-71
2022/09/01 03:03:03;;;;;;;;;;;22.90;99.60;;;;;;5096413;28;20370;-71
2022/09/01 03:05:31;;;;;;;;;;;23.10;98.80;;;;;;5096326;28;20078;-70
2022/09/01 03:08:03;;;;;;;;;;;22.80;99.10;;;;;;5096303;28;19970;-71
2022/09/01 03:10:31;;;;;;;;;;;22.50;99.60;;;;;;5096166;28;19998;-69
2022/09/01 03:13:21;;;;;;;;;;;22.20;99.90;;;;;;5095920;28;19916;-71
2022/09/01 03:15:49;;;;;;;;;;;21.90;99.90;;;;;;5077382;28;20030;-69
2022/09/01 03:18:17;;;;;;;;;;;21.70;99.90;;;;;;5096266;28;19912;-70
2022/09/01 03:20:45;;;;;;;;;;;21.90;99.90;;;;;;5077600;28;20365;-68
2022/09/01 03:23:13;;;;;;;;;;;21.90;99.90;;;;;;5095832;28;19999;-69
2022/09/01 03:25:41;;;;;;;;;;;21.60;99.90;;;;;;5095747;28;19908;-68
2022/09/01 03:28:08;;;;;;;;;;;21.40;99.90;;;;;;5095729;28;19912;-68
2022/09/01 03:30:38;;;;;;;;;;;21.20;99.90;;;;;;5095662;28;20414;-69
2022/09/01 03:33:06;;;;;;;;;;;21.00;99.90;;;;;;5077462;28;19908;-71
2022/09/01 03:35:33;;;;;;;;;;;20.80;99.90;;;;;;5095645;28;19908;-69
2022/09/01 03:38:00;;;;;;;;;;;20.80;99.90;;;;;;5077610;28;19915;-70
2022/09/01 03:40:31;;;;;;;;;;;21.30;99.90;;;;;;5095782;28;19920;-70
2022/09/01 03:42:58;;;;;;;;;;;21.60;99.90;;;;;;5095705;28;19908;-70
2022/09/01 03:45:25;;;;;;;;;;;22.10;99.90;;;;;;5095770;28;20031;-69
2022/09/01 03:47:53;;;;;;;;;;;21.90;99.90;;;;;;5095474;28;19908;-69
2022/09/01 03:50:21;;;;;;;;;;;21.50;99.90;;;;;;5095100;28;19908;-70
2022/09/01 03:52:52;;;;;;;;;;;21.30;99.90;;;;;;5095422;28;19954;-69
2022/09/01 03:55:25;;;;;;;;;;;21.30;99.90;;;;;;5095383;28;19908;-70
2022/09/01 03:57:53;;;;;;;;;;;21.20;99.90;;;;;;5095261;28;20027;-70
2022/09/01 04:00:22;;;;;;;;;;;22.10;99.90;;;;;;5094917;28;19947;-71
2022/09/01 04:02:56;;;;;;;;;;;22.70;98.90;;;;;;5094901;28;19912;-69
2022/09/01 04:05:32;;;;;;;;;;;23.20;98.10;;;;;;5094544;28;19977;-69
2022/09/01 04:08:02;;;;;;;;;;;23.60;97.60;;;;;;5095276;28;20380;-71
2022/09/01 04:10:38;;;;;;;;;;;24.10;96.70;;;;;;5095049;28;20270;-70
2022/09/01 04:13:06;;;;;;;;;;;24.60;95.30;;;;;;5094717;28;20249;-68
2022/09/01 04:15:36;;;;;;;;;;;24.80;94.80;;;;;;5094692;28;19955;-71
2022/09/01 04:18:09;;;;;;;;;;;25.10;95.20;;;;;;5095009;28;19916;-70
2022/09/01 04:20:55;;;;;;;;;;;25.70;94.30;;;;;;5094862;28;19917;-71
2022/09/01 04:23:29;;;;;;;;;;;26.20;93.20;;;;;;5094783;28;19953;-70
2022/09/01 04:25:59;;;;;;;;;;;26.10;92.70;;;;;;5094638;28;19961;-71
2022/09/01 04:28:34;;;;;;;;;;;26.00;93.40;;;;;;5076068;28;19915;-71
2022/09/01 04:31:04;;;;;;;;;;;26.30;92.40;;;;;;5093363;28;19908;-69
2022/09/01 04:33:38;;;;;;;;;;;25.90;92.90;;;;;;5094600;28;19970;-69
2022/09/01 04:36:06;;;;;;;;;;;25.70;92.90;;;;;;5076270;28;20010;-70
2022/09/01 04:38:35;;;;;;;;;;;25.60;93.40;;;;;;5094531;28;19953;-71
2022/09/01 04:41:05;;;;;;;;;;;25.80;92.70;;;;;;5076102;28;19922;-69
2022/09/01 04:43:32;;;;;;;;;;;25.80;92.90;;;;;;5094387;28;19908;-69
2022/09/01 04:45:59;;;;;;;;;;;25.90;92.60;;;;;;5094403;28;19912;-68
2022/09/01 04:48:26;;;;;;;;;;;26.00;92.20;;;;;;5094277;28;19909;-69
2022/09/01 04:50:55;;;;;;;;;;;26.30;92.20;;;;;;5094133;28;19912;-68
2022/09/01 04:53:23;;;;;;;;;;;26.20;91.60;;;;;;5094103;28;19999;-68
2022/09/01 04:55:51;;;;;;;;;;;26.30;91.70;;;;;;5093891;28;20345;-69
2022/09/01 04:58:18;;;;;;;;;;;26.40;91.40;;;;;;5094116;28;19995;-69
2022/09/01 05:00:50;;;;;;;;;;;26.80;91.20;;;;;;5094072;28;19916;-68
2022/09/01 05:03:20;;;;;;;;;;;27.10;90.50;;;;;;5093967;28;19912;-68
2022/09/01 05:05:46;;;;;;;;;;;27.20;90.40;;;;;;5093912;28;19932;-69
2022/09/01 05:08:15;;;;;;;;;;;26.70;90.10;;;;;;5093941;28;19912;-69
2022/09/01 05:10:42;;;;;;;;;;;26.50;91.10;;;;;;5075635;28;20275;-68
2022/09/01 05:13:11;;;;;;;;;;;26.80;90.80;;;;;;5075414;28;19915;-69
2022/09/01 05:15:38;;;;;;;;;;;26.90;90.60;;;;;;5092913;28;20357;-69
2022/09/01 05:18:08;;;;;;;;;;;26.80;89.50;;;;;;5093569;28;19968;-68
2022/09/01 05:20:40;;;;;;;;;;;26.70;91.10;;;;;;5092459;28;19927;-69
2022/09/01 05:23:09;;;;;;;;;;;26.40;90.50;;;;;;5092642;28;19908;-70
2022/09/01 05:25:41;;;;;;;;;;;26.40;91.20;;;;;;5074231;28;19996;-69
2022/09/01 05:28:08;;;;;;;;;;;26.60;90.30;;;;;;5092985;28;19919;-72
2022/09/01 05:30:37;;;;;;;;;;;26.90;90.40;;;;;;5093004;28;19908;-69
2022/09/01 05:33:09;;;;;;;;;;;27.20;89.70;;;;;;5093265;28;19915;-71
2022/09/01 05:35:36;;;;;;;;;;;27.30;88.60;;;;;;5092922;28;19916;-68
2022/09/01 05:38:03;;;;;;;;;;;27.40;87.90;;;;;;5093007;28;20000;-71
2022/09/01 05:40:31;;;;;;;;;;;27.60;88.70;;;;;;5074061;28;19926;-70
2022/09/01 05:42:58;;;;;;;;;;;27.60;87.30;;;;;;5093122;28;19912;-69
2022/09/01 05:45:25;;;;;;;;;;;27.10;87.30;;;;;;5092808;28;19908;-71
2022/09/01 05:47:53;;;;;;;;;;;26.30;89.80;;;;;;5089258;28;19909;-69
2022/09/01 05:50:20;;;;;;;;;;;25.70;90.30;;;;;;5091565;28;19912;-69
2022/09/01 05:52:47;;;;;;;;;;;24.90;91.20;;;;;;5092866;28;19973;-69
2022/09/01 05:55:15;;;;;;;;;;;24.10;92.20;;;;;;5092921;28;20007;-69
2022/09/01 05:57:42;;;;;;;;;;;22.90;93.50;;;;;;5092804;28;19908;-68
2022/09/01 06:00:12;;;;;;;;;;;22.10;94.80;;;;;;5092602;28;20003;-71
2022/09/01 06:02:39;;;;;;;;;;;21.70;96.10;;;;;;5091702;28;19908;-71
2022/09/01 06:05:07;;;;;;;;;;;21.30;96.40;;;;;;5089955;28;19924;-69
2022/09/01 06:07:38;;;;;;;;;;;21.00;97.20;;;;;;5091661;28;20068;-69
2022/09/01 06:10:07;;;;;;;;;;;20.70;98.00;;;;;;5091668;28;19998;-69
2022/09/01 06:12:34;;;;;;;;;;;20.80;98.80;;;;;;5091914;28;19962;-69
2022/09/01 06:15:01;;;;;;;;;;;21.50;98.20;;;;;;5073923;28;20262;-69
2022/09/01 06:17:29;;;;;;;;;;;22.20;96.90;;;;;;5091913;28;19973;-69
2022/09/01 06:19:56;;;;;;;;;;;22.50;96.30;;;;;;5091967;28;19916;-71
2022/09/01 06:22:24;;;;;;;;;;;22.30;96.40;;;;;;5091740;28;19931;-68
2022/09/01 06:24:53;;;;;;;;;;;22.70;96.40;;;;;;5091756;28;19912;-70
2022/09/01 06:27:20;;;;;;;;;;;23.20;94.90;;;;;;5092660;28;20375;-70
2022/09/01 06:29:55;;;;;;;;;;;23.00;95.40;;;;;;5096465;28;19908;-71
2022/09/01 06:32:24;;;;;;;;;;;22.70;95.60;;;;;;5095812;28;19926;-71
2022/09/01 06:34:56;;;;;;;;;;;22.20;96.50;;;;;;5078009;28;20265;-71
2022/09/01 06:37:24;;;;;;;;;;;21.70;97.00;;;;;;5077579;28;20295;-70
2022/09/01 06:39:51;;;;;;;;;;;21.20;97.90;;;;;;5077530;28;20370;-71
2022/09/01 06:42:18;;;;;;;;;;;20.80;98.70;;;;;;5095834;28;19929;-71
2022/09/01 06:44:45;;;;;;;;;;;20.60;99.70;;;;;;5095501;28;19908;-68
2022/09/01 06:47:12;;;;;;;;;;;20.80;99.30;;;;;;5095700;28;19995;-70
2022/09/01 06:49:39;;;;;;;;;;;21.10;98.80;;;;;;5077892;28;19914;-70
2022/09/01 06:52:06;;;;;;;;;;;21.40;98.50;;;;;;5096268;28;19909;-70
2022/09/01 06:54:34;;;;;;;;;;;21.40;98.30;;;;;;5096155;28;19909;-71
2022/09/01 06:57:04;;;;;;;;;;;21.30;98.00;;;;;;5095998;28;19915;-70
2022/09/01 06:59:33;;;;;;;;;;;21.00;98.70;;;;;;5095771;28;20401;-70
2022/09/01 07:02:05;;;;;;;;;;;20.80;98.90;;;;;;5096188;28;20377;-70
2022/09/01 07:04:31;;;;;;;;;;;20.50;99.30;;;;;;5095911;28;20357;-69
2022/09/01 07:06:59;;;;;;;;;;;20.00;99.90;;;;;;5095644;28;19915;-70
2022/09/01 07:09:25;;;;;;;;;;;19.80;99.90;;;;;;5096000;28;19908;-69
2022/09/01 07:11:54;;;;;;;;;;;19.60;99.90;;;;;;5095922;28;19908;-72
2022/09/01 07:14:21;;;;;;;;;;;19.40;99.90;;;;;;5095410;28;19912;-69
2022/09/01 07:16:47;;;;;;;;;;;19.10;99.90;;;;;;5095865;28;19928;-70
2022/09/01 07:19:14;;;;;;;;;;;19.00;99.90;;;;;;5095644;28;19962;-69
2022/09/01 07:21:42;;;;;;;;;;;18.90;99.90;;;;;;5095648;28;19965;-71
2022/09/01 07:24:10;;;;;;;;;;;18.90;99.90;;;;;;5095657;28;19958;-70
2022/09/01 07:26:37;;;;;;;;;;;18.90;99.90;;;;;;5095505;28;19999;-68
2022/09/01 07:29:05;;;;;;;;;;;18.80;99.90;;;;;;5095588;28;19913;-70
2022/09/01 07:31:35;;;;;;;;;;;18.70;99.90;;;;;;5077554;28;19908;-68
2022/09/01 07:34:04;;;;;;;;;;;18.60;99.90;;;;;;5095027;28;20391;-70
2022/09/01 07:36:32;;;;;;;;;;;18.50;99.90;;;;;;5095455;28;19912;-69
2022/09/01 07:39:00;;;;;;;;;;;18.40;99.90;;;;;;5094166;28;19934;-70
2022/09/01 07:41:27;;;;;;;;;;;18.30;99.90;;;;;;5095048;28;19920;-70
2022/09/01 07:43:55;;;;;;;;;;;18.30;99.90;;;;;;5094866;28;19915;-70
2022/09/01 07:46:24;;;;;;;;;;;18.20;99.90;;;;;;5094903;28;20347;-70
2022/09/01 07:48:55;;;;;;;;;;;18.10;99.90;;;;;;5095119;28;19965;-70
2022/09/01 07:51:23;;;;;;;;;;;18.00;99.90;;;;;;5095130;28;19908;-69
2022/09/01 07:53:50;;;;;;;;;;;18.00;99.90;;;;;;5095203;28;19916;-70
2022/09/01 07:56:18;;;;;;;;;;;18.00;99.90;;;;;;5094987;28;19912;-69
2022/09/01 07:58:46;;;;;;;;;;;18.10;99.90;;;;;;5095390;28;19909;-70
2022/09/01 08:01:20;;;;;;;;;;;18.00;99.90;;;;;;5094788;28;19916;-72
2022/09/01 08:03:49;;;;;;;;;;;18.00;99.90;;;;;;5093720;28;19912;-71
2022/09/01 08:06:18;;;;;;;;;;;18.00;99.90;;;;;;5093727;28;19923;-70
2022/09/01 08:08:45;;;;;;;;;;;17.90;99.90;;;;;;5076837;28;19908;-71
2022/09/01 08:11:15;;;;;;;;;;;17.80;99.90;;;;;;5094817;28;19912;-70
2022/09/01 08:13:42;;;;;;;;;;;17.80;99.90;;;;;;5094449;28;20006;-71
2022/09/01 08:16:09;;;;;;;;;;;17.80;99.90;;;;;;5094464;28;19927;-70
2022/09/01 08:18:36;;;;;;;;;;;17.70;99.90;;;;;;5094528;28;20364;-69
2022/09/01 08:21:10;;;;;;;;;;;17.70;99.90;;;;;;5091259;28;20399;-71
2022/09/01 08:23:37;;;;;;;;;;;17.60;99.90;;;;;;5084917;28;19922;-70
2022/09/01 08:26:04;;;;;;;;;;;17.60;99.90;;;;;;5081607;28;19912;-70
2022/09/01 08:28:32;;;;;;;;;;;17.60;99.90;;;;;;5082408;28;19913;-69
2022/09/01 08:30:59;;;;;;;;;;;17.60;99.90;;;;;;5086227;28;19957;-70
2022/09/01 08:33:26;;;;;;;;;;;17.50;99.90;;;;;;5086015;28;19918;-69
2022/09/01 08:35:54;;;;;;;;;;;17.50;99.90;;;;;;5088704;28;19954;-70
2022/09/01 08:38:20;;;;;;;;;;;17.40;99.90;;;;;;5083683;28;19934;-71
2022/09/01 08:40:53;;;;;;;;;;;17.40;99.90;;;;;;5084048;28;19921;-71
2022/09/01 08:43:32;;;;;;;;;;;17.50;99.90;;;;;;5087022;28;19985;-70
2022/09/01 08:46:05;;;;;;;;;;;17.40;99.90;;;;;;5081821;28;19916;-72
2022/09/01 08:48:36;;;;;;;;;;;17.40;99.90;;;;;;5084139;28;19966;-69
2022/09/01 08:51:08;;;;;;;;;;;17.40;99.90;;;;;;5084708;28;19909;-69
2022/09/01 08:53:40;;;;;;;;;;;17.40;99.90;;;;;;5088996;28;19916;-69
2022/09/01 08:56:08;;;;;;;;;;;17.30;99.90;;;;;;5092901;28;20002;-70
2022/09/01 08:58:35;;;;;;;;;;;17.40;99.90;;;;;;5092905;28;20397;-70
2022/09/01 09:01:19;;;;;;;;;;;17.30;99.90;;;;;;5093613;28;19962;-72
2022/09/01 09:03:51;;;;;;;;;;;17.30;99.90;;;;;;5093638;28;19915;-69
2022/09/01 09:06:25;;;;;;;;;;;17.30;99.90;;;;;;5093775;28;19908;-69
2022/09/01 09:08:53;;;;;;;;;;;17.30;99.90;;;;;;5092503;28;19966;-69
2022/09/01 09:11:39;;;;;;;;;;;17.20;99.90;;;;;;5093661;28;20389;-68
2022/09/01 09:14:14;;;;;;;;;;;17.20;99.90;;;;;;5074482;28;19908;-70
2022/09/01 09:16:48;;;;;;;;;;;17.20;99.90;;;;;;5092795;28;19920;-69
2022/09/01 09:19:21;;;;;;;;;;;17.30;99.90;;;;;;5091589;28;19934;-70
2022/09/01 09:21:48;;;;;;;;;;;17.30;99.90;;;;;;5082622;28;19920;-69
2022/09/01 09:24:18;;;;;;;;;;;17.30;99.90;;;;;;5078232;28;19920;-70
2022/09/01 09:26:48;;;;;;;;;;;17.30;99.90;;;;;;5075153;28;19913;-69
2022/09/01 09:29:15;;;;;;;;;;;17.30;99.90;;;;;;5093307;28;19962;-70
2022/09/01 09:31:44;;;;;;;;;;;17.30;99.90;;;;;;5093045;28;19961;-70
2022/09/01 09:34:31;;;;;;;;;;;17.30;99.90;;;;;;5091955;28;19916;-69
2022/09/01 09:37:18;;;;;;;;;;;17.30;99.90;;;;;;5088462;28;20602;-71
2022/09/01 09:39:56;;;;;;;;;;;17.30;99.90;;;;;;5083753;28;19917;-71
2022/09/01 09:42:26;;;;;;;;;;;17.30;99.90;;;;;;5084030;28;19919;-69
2022/09/01 09:44:54;;;;;;;;;;;17.30;99.90;;;;;;5081666;28;19919;-70
2022/09/01 09:47:41;;;;;;;;;;;17.30;99.90;;;;;;5082972;28;20386;-69
2022/09/01 09:50:13;;;;;;;;;;;17.30;99.90;;;;;;5091798;28;19919;-69
2022/09/01 09:52:40;;;;;;;;;;;17.30;99.90;;;;;;5088836;28;20023;-70
2022/09/01 09:55:20;;;;;;;;;;;17.30;99.90;;;;;;5091890;28;19912;-70
2022/09/01 09:57:47;;;;;;;;;;;17.30;99.90;;;;;;5092142;28;19914;-70
2022/09/01 10:00:22;;;;;;;;;;;17.30;99.90;;;;;;5092198;28;19920;-71
2022/09/01 10:03:14;;;;;;;;;;;17.30;99.90;;;;;;5090583;28;19999;-70
2022/09/01 10:05:50;;;;;;;;;;;17.30;99.90;;;;;;5070432;28;19923;-69
2022/09/01 10:08:26;;;;;;;;;;;17.30;99.90;;;;;;5078210;28;19912;-71
2022/09/01 10:10:55;;;;;;;;;;;17.30;99.90;;;;;;5062707;28;20005;-70
2022/09/01 10:13:23;;;;;;;;;;;17.20;99.90;;;;;;5082997;28;20280;-69
2022/09/01 10:15:52;;;;;;;;;;;17.20;99.90;;;;;;5082177;28;19923;-69
2022/09/01 10:18:21;;;;;;;;;;;17.20;99.90;;;;;;5081406;28;19920;-69
2022/09/01 10:20:57;;;;;;;;;;;17.20;99.90;;;;;;5077068;28;20421;-70
2022/09/01 10:23:26;;;;;;;;;;;17.30;99.90;;;;;;5086374;28;19919;-70
2022/09/01 10:25:55;;;;;;;;;;;17.20;99.90;;;;;;5082180;28;19915;-71
2022/09/01 10:28:23;;;;;;;;;;;17.20;99.90;;;;;;5085619;28;19916;-71
2022/09/01 10:30:51;;;;;;;;;;;17.10;99.90;;;;;;5081136;28;19908;-70
2022/09/01 10:33:19;;;;;;;;;;;17.10;99.90;;;;;;5082877;28;20326;-71
2022/09/01 10:35:47;;;;;;;;;;;17.10;99.90;;;;;;5079750;28;19919;-69
2022/09/01 10:38:16;;;;;;;;;;;17.10;99.90;;;;;;5082139;28;19916;-70
2022/09/01 10:40:47;;;;;;;;;;;17.10;99.90;;;;;;5080514;28;20288;-69
2022/09/01 10:43:32;;;;;;;;;;;17.00;99.90;;;;;;5088090;28;19920;-71
2022/09/01 10:45:59;;;;;;;;;;;17.10;99.90;;;;;;5081992;28;19920;-70
2022/09/01 10:48:28;;;;;;;;;;;17.00;99.90;;;;;;5080015;28;20384;-71
2022/09/01 10:51:13;;;;;;;;;;;17.00;99.90;;;;;;5081625;28;19969;-71
2022/09/01 10:53:40;;;;;;;;;;;16.90;99.90;;;;;;5086555;28;19912;-70
2022/09/01 10:56:25;;;;;;;;;;;16.90;99.90;;;;;;5080171;28;19916;-70
2022/09/01 10:59:04;;;;;;;;;;;16.90;99.90;;;;;;5090110;28;19908;-70
2022/09/01 11:01:39;;;;;;;;;;;16.90;99.90;;;;;;5085728;28;20455;-70
2022/09/01 11:04:26;;;;;;;;;;;16.90;99.90;;;;;;5087444;28;20021;-69
2022/09/01 11:06:57;;;;;;;;;;;16.90;99.90;;;;;;5059590;28;19914;-70
2022/09/01 11:09:27;;;;;;;;;;;16.90;99.90;;;;;;5090969;28;20376;-69
2022/09/01 11:12:02;;;;;;;;;;;16.90;99.90;;;;;;5069354;28;19920;-70
2022/09/01 11:14:34;;;;;;;;;;;16.90;99.90;;;;;;5083224;28;19958;-71
2022/09/01 11:17:12;;;;;;;;;;;16.90;99.90;;;;;;5083154;28;19920;-71
2022/09/01 11:20:05;;;;;;;;;;;16.90;99.90;;;;;;5091669;28;19916;-70
2022/09/01 11:22:33;;;;;;;;;;;16.90;99.90;;;;;;5074512;28;20379;-69
2022/09/01 11:25:09;;;;;;;;;;;16.90;99.90;;;;;;5091683;28;19937;-70
2022/09/01 11:27:48;;;;;;;;;;;16.80;99.90;;;;;;5094090;28;19913;-69
2022/09/01 11:30:20;;;;;;;;;;;16.80;99.90;;;;;;5093462;28;20361;-69
2022/09/01 11:32:49;;;;;;;;;;;16.70;99.90;;;;;;5094960;28;19909;-70
2022/09/01 11:35:20;;;;;;;;;;;16.80;99.90;;;;;;5076279;28;19916;-69
2022/09/01 11:37:51;;;;;;;;;;;16.70;99.90;;;;;;5095088;28;20422;-70
2022/09/01 11:40:23;;;;;;;;;;;16.70;99.90;;;;;;5094869;28;19970;-69
2022/09/01 11:42:52;;;;;;;;;;;16.70;99.90;;;;;;5093268;28;19913;-69
2022/09/01 11:45:31;;;;;;;;;;;16.70;99.90;;;;;;5093831;28;19912;-70
2022/09/01 11:48:00;;;;;;;;;;;16.70;99.90;;;;;;5094856;28;19970;-69
2022/09/01 11:50:27;;;;;;;;;;;16.70;99.90;;;;;;5095359;28;19908;-68
2022/09/01 11:53:04;;;;;;;;;;;16.70;99.90;;;;;;5094623;28;19912;-69
2022/09/01 11:55:35;;;;;;;;;;;16.70;99.90;;;;;;5094959;28;19999;-70
2022/09/01 11:58:03;;;;;;;;;;;16.70;99.90;;;;;;5094549;28;19908;-68
2022/09/01 12:00:37;;;;;;;;;;;16.70;99.90;;;;;;5094885;28;19923;-69
2022/09/01 12:03:23;;;;;;;;;;;16.70;99.90;;;;;;5092270;28;20276;-70
2022/09/01 12:06:00;;;;;;;;;;;16.70;99.90;;;;;;5088826;28;19999;-70
2022/09/01 12:08:29;;;;;;;;;;;16.70;99.90;;;;;;5083758;28;19965;-69
2022/09/01 12:11:03;;;;;;;;;;;16.70;99.90;;;;;;5085214;28;19912;-68
2022/09/01 12:13:30;;;;;;;;;;;16.70;99.90;;;;;;5091385;28;19920;-69
2022/09/01 12:15:58;;;;;;;;;;;16.60;99.90;;;;;;5093648;28;19920;-69
2022/09/01 12:18:27;;;;;;;;;;;16.60;99.90;;;;;;5094029;28;19960;-70
2022/09/01 12:20:56;;;;;;;;;;;16.60;99.90;;;;;;5083260;28;19940;-69
2022/09/01 12:23:23;;;;;;;;;;;16.60;99.90;;;;;;5094424;28;19908;-69
2022/09/01 12:25:51;;;;;;;;;;;16.60;99.90;;;;;;5093736;28;20342;-69
2022/09/01 12:28:18;;;;;;;;;;;16.60;99.90;;;;;;5093925;28;19916;-69
2022/09/01 12:30:44;;;;;;;;;;;16.50;99.90;;;;;;5093827;28;19943;-69
2022/09/01 12:33:12;;;;;;;;;;;16.50;99.90;;;;;;5093962;28;19908;-69
2022/09/01 12:35:40;;;;;;;;;;;16.50;99.90;;;;;;5094083;28;20437;-69
2022/09/01 12:38:19;;;;;;;;;;;16.50;99.90;;;;;;5093922;28;20366;-69
2022/09/01 12:40:46;;;;;;;;;;;16.50;99.90;;;;;;5093321;28;19981;-69
2022/09/01 12:43:26;;;;;;;;;;;16.40;99.90;;;;;;5094096;28;19908;-69
2022/09/01 12:45:53;;;;;;;;;;;16.40;99.90;;;;;;5094068;28;19908;-69
2022/09/01 12:48:27;;;;;;;;;;;16.40;99.90;;;;;;5075236;28;19912;-69
2022/09/01 12:50:54;;;;;;;;;;;16.40;99.90;;;;;;5093224;28;19920;-69
2022/09/01 12:53:23;;;;;;;;;;;16.30;99.90;;;;;;5093934;28;19941;-69
2022/09/01 12:56:01;;;;;;;;;;;16.40;99.90;;;;;;5093651;28;19909;-70
2022/09/01 12:58:31;;;;;;;;;;;16.30;99.90;;;;;;5093769;28;19919;-69
2022/09/01 13:01:03;;;;;;;;;;;16.30;99.90;;;;;;5093320;28;19924;-69
2022/09/01 13:03:30;;;;;;;;;;;16.30;99.90;;;;;;5093703;28;20338;-69
2022/09/01 13:06:00;;;;;;;;;;;16.30;99.90;;;;;;5093539;28;19908;-70
2022/09/01 13:08:29;;;;;;;;;;;16.30;99.90;;;;;;5093012;28;20389;-70
2022/09/01 13:10:59;;;;;;;;;;;16.30;99.90;;;;;;5091945;28;19916;-69
2022/09/01 13:13:26;;;;;;;;;;;16.30;99.90;;;;;;5093546;28;19908;-69
2022/09/01 13:15:54;;;;;;;;;;;16.20;99.90;;;;;;5093310;28;20319;-70
2022/09/01 13:18:22;;;;;;;;;;;16.20;99.90;;;;;;5093690;28;19908;-70
2022/09/01 13:20:49;;;;;;;;;;;16.20;99.90;;;;;;5092640;28;19920;-69
2022/09/01 13:23:16;;;;;;;;;;;16.30;99.90;;;;;;5092975;28;19916;-68
2022/09/01 13:25:45;;;;;;;;;;;16.20;99.90;;;;;;5093238;28;20485;-69
2022/09/01 13:28:15;;;;;;;;;;;16.20;99.90;;;;;;5092983;28;20380;-69
2022/09/01 13:30:47;;;;;;;;;;;16.10;99.90;;;;;;5092655;28;20292;-69
2022/09/01 13:33:14;;;;;;;;;;;16.10;99.90;;;;;;5075102;28;19908;-68
2022/09/01 13:35:40;;;;;;;;;;;16.10;99.90;;;;;;5092858;28;20399;-69
2022/09/01 13:38:07;;;;;;;;;;;16.10;99.90;;;;;;5091762;28;19912;-69
2022/09/01 13:40:34;;;;;;;;;;;16.10;99.90;;;;;;5091860;28;19927;-69
2022/09/01 13:43:03;;;;;;;;;;;16.00;99.90;;;;;;5092874;28;19928;-69
2022/09/01 13:45:30;;;;;;;;;;;16.00;99.90;;;;;;5092746;28;19905;-70
2022/09/01 13:47:57;;;;;;;;;;;15.90;99.90;;;;;;5093166;28;19908;-69
2022/09/01 13:50:23;;;;;;;;;;;15.90;99.90;;;;;;5092270;28;19912;-69
2022/09/01 13:52:51;;;;;;;;;;;15.90;99.90;;;;;;5092889;28;19916;-69
2022/09/01 13:55:22;;;;;;;;;;;15.80;99.90;;;;;;5074726;28;19987;-69
2022/09/01 13:57:49;;;;;;;;;;;15.90;99.90;;;;;;5092469;28;19947;-68
2022/09/01 14:00:18;;;;;;;;;;;15.80;99.90;;;;;;5092199;28;19924;-69
2022/09/01 14:02:48;;;;;;;;;;;15.80;99.90;;;;;;5092384;28;20314;-69
2022/09/01 14:05:22;;;;;;;;;;;15.80;99.90;;;;;;5092300;28;20007;-68
2022/09/01 14:07:49;;;;;;;;;;;15.80;99.90;;;;;;5092456;28;19912;-70
2022/09/01 14:10:16;;;;;;;;;;;15.80;99.90;;;;;;5091971;28;20371;-69
2022/09/01 14:12:44;;;;;;;;;;;15.80;99.90;;;;;;5092279;28;20313;-70
2022/09/01 14:15:12;;;;;;;;;;;15.90;99.90;;;;;;5092767;28;19915;-69
2022/09/01 14:17:38;;;;;;;;;;;15.90;99.90;;;;;;5092226;28;19928;-69
2022/09/01 14:20:11;;;;;;;;;;;15.80;99.90;;;;;;5092082;28;20018;-69
2022/09/01 14:22:42;;;;;;;;;;;15.80;99.90;;;;;;5092376;28;20395;-69
2022/09/01 14:25:09;;;;;;;;;;;15.90;99.90;;;;;;5092503;28;19908;-69
2022/09/01 14:27:37;;;;;;;;;;;15.80;99.90;;;;;;5092202;28;19958;-70
2022/09/01 14:30:07;;;;;;;;;;;15.70;99.90;;;;;;5091570;28;19919;-69
2022/09/01 14:32:34;;;;;;;;;;;15.70;99.90;;;;;;5092248;28;19908;-69
2022/09/01 14:35:01;;;;;;;;;;;15.70;99.90;;;;;;5092093;28;19908;-71